createdAt,value
2022-10-11T00:01:32.969Z,100510.80
2022-10-11T00:04:04.917Z,100516.60
2022-10-11T00:06:37.967Z,100513.60
2022-10-11T00:09:10.163Z,100517.00
2022-10-11T00:11:41.874Z,100513.80
2022-10-11T00:14:13.628Z,100516.40
2022-10-11T00:16:45.504Z,100521.60
2022-10-11T00:19:19.266Z,100518.00
2022-10-11T00:21:51.822Z,100518.40
2022-10-11T00:24:23.450Z,100517.00
2022-10-11T00:26:55.217Z,100519.60
2022-10-11T00:29:27.605Z,100526.60
2022-10-11T00:31:59.484Z,100524.80
2022-10-11T00:34:31.311Z,100532.40
2022-10-11T00:37:03.591Z,100535.20
2022-10-11T00:39:35.628Z,100537.00
2022-10-11T00:42:12.080Z,100535.20
2022-10-11T00:44:47.572Z,100538.40
2022-10-11T00:47:21.493Z,100535.40
2022-10-11T00:49:58.611Z,100537.20
2022-10-11T00:52:34.873Z,100537.80
2022-10-11T00:55:13.375Z,100538.20
2022-10-11T00:57:48.613Z,100534.00
2022-10-11T01:00:21.431Z,100537.20
2022-10-11T01:02:53.360Z,100539.80
2022-10-11T01:05:29.748Z,100542.00
2022-10-11T01:08:03.781Z,100539.20
2022-10-11T01:10:36.261Z,100538.80
2022-10-11T01:13:19.693Z,100546.00
2022-10-11T01:16:03.592Z,100548.80
2022-10-11T01:18:47.241Z,100544.00
2022-10-11T01:21:32.190Z,100544.80
2022-10-11T01:24:39.360Z,100548.00
2022-10-11T01:27:34.968Z,100551.80
2022-10-11T01:30:28.958Z,100554.40
2022-10-11T01:33:10.368Z,100549.40
2022-10-11T01:35:47.397Z,100551.00
2022-10-11T01:38:25.742Z,100556.80
2022-10-11T01:41:01.403Z,100554.40
2022-10-11T01:43:35.610Z,100560.00
2022-10-11T01:46:11.423Z,100561.00
2022-10-11T01:48:55.009Z,100564.00
2022-10-11T01:51:29.375Z,100567.20
2022-10-11T01:54:17.938Z,100567.00
2022-10-11T01:57:01.261Z,100560.40
2022-10-11T01:59:44.928Z,100564.20
2022-10-11T02:02:31.612Z,100570.60
2022-10-11T02:05:10.424Z,100567.40
2022-10-11T02:07:49.145Z,100575.60
2022-10-11T02:10:28.002Z,100578.40
2022-10-11T02:13:07.208Z,100578.80
2022-10-11T02:15:41.881Z,100581.40
2022-10-11T02:18:17.512Z,100584.20
2022-10-11T02:20:50.052Z,100581.20
2022-10-11T02:23:26.740Z,100586.60
2022-10-11T02:25:59.528Z,100590.00
2022-10-11T02:28:36.601Z,100594.00
2022-10-11T02:31:11.301Z,100596.40
2022-10-11T02:33:47.803Z,100598.60
2022-10-11T02:36:26.017Z,100599.80
2022-10-11T02:39:06.454Z,100605.80
2022-10-11T02:41:43.157Z,100614.20
2022-10-11T02:44:18.240Z,100619.60
2022-10-11T02:46:52.878Z,100616.40
2022-10-11T02:49:27.315Z,100621.80
2022-10-11T02:52:00.190Z,100626.60
2022-10-11T02:54:32.450Z,100634.00
2022-10-11T02:57:04.432Z,100639.80
2022-10-11T02:59:36.482Z,100640.20
2022-10-11T03:02:08.554Z,100642.00
2022-10-11T03:04:40.453Z,100645.00
2022-10-11T03:07:13.411Z,100650.20
2022-10-11T03:09:47.451Z,100645.00
2022-10-11T03:12:19.286Z,100651.60
2022-10-11T03:14:51.044Z,100655.20
2022-10-11T03:17:37.141Z,100651.20
2022-10-11T03:20:11.063Z,100655.80
2022-10-11T03:22:43.005Z,100660.00
2022-10-11T03:25:15.273Z,100665.40
2022-10-11T03:27:47.259Z,100669.60
2022-10-11T03:30:20.233Z,100668.40
2022-10-11T03:32:52.217Z,100666.80
2022-10-11T03:35:23.914Z,100665.40
2022-10-11T03:37:55.694Z,100666.60
2022-10-11T03:40:27.521Z,100676.80
2022-10-11T03:42:59.368Z,100686.20
2022-10-11T03:45:31.806Z,100694.20
2022-10-11T03:48:03.928Z,100698.20
2022-10-11T03:50:38.959Z,100703.20
2022-10-11T03:53:11.564Z,100706.20
2022-10-11T03:55:43.868Z,100710.60
2022-10-11T03:58:15.653Z,100717.40
2022-10-11T04:01:07.663Z,100723.60
2022-10-11T04:03:39.393Z,100724.20
2022-10-11T04:06:11.536Z,100725.20
2022-10-11T04:08:43.385Z,100730.60
2022-10-11T04:11:15.149Z,100734.40
2022-10-11T04:13:46.938Z,100737.20
2022-10-11T04:16:18.686Z,100737.20
2022-10-11T04:18:50.426Z,100741.60
2022-10-11T04:21:22.187Z,100736.40
2022-10-11T04:23:54.581Z,100738.20
2022-10-11T04:26:26.416Z,100741.40
2022-10-11T04:28:58.313Z,100739.80
2022-10-11T04:31:30.128Z,100741.40
2022-10-11T04:34:01.971Z,100751.80
2022-10-11T04:36:34.074Z,100756.60
2022-10-11T04:39:06.084Z,100760.60
2022-10-11T04:41:38.006Z,100762.80
2022-10-11T04:44:09.766Z,100768.40
2022-10-11T04:46:41.482Z,100767.40
2022-10-11T04:49:13.173Z,100769.80
2022-10-11T04:51:44.962Z,100772.80
2022-10-11T04:54:16.864Z,100775.80
2022-10-11T04:56:48.751Z,100783.00
2022-10-11T04:59:20.494Z,100782.60
2022-10-11T05:01:52.501Z,100783.40
2022-10-11T05:04:24.307Z,100789.20
2022-10-11T05:06:56.156Z,100797.20
2022-10-11T05:09:28.062Z,100790.40
2022-10-11T05:11:59.821Z,100792.40
2022-10-11T05:14:31.906Z,100800.20
2022-10-11T05:17:03.910Z,100795.40
2022-10-11T05:19:35.707Z,100800.40
2022-10-11T05:22:07.386Z,100803.20
2022-10-11T05:24:39.211Z,100817.00
2022-10-11T05:27:11.029Z,100817.40
2022-10-11T05:29:42.787Z,100820.60
2022-10-11T05:32:14.635Z,100826.00
2022-10-11T05:34:46.445Z,100827.80
2022-10-11T05:37:18.137Z,100828.40
2022-10-11T05:39:50.640Z,100830.80
2022-10-11T05:42:22.761Z,100836.00
2022-10-11T05:44:55.042Z,100841.40
2022-10-11T05:47:29.259Z,100848.40
2022-10-11T05:50:01.166Z,100855.20
2022-10-11T05:52:33.124Z,100859.00
2022-10-11T05:55:05.902Z,100865.20
2022-10-11T05:57:37.686Z,100868.80
2022-10-11T06:00:12.820Z,100868.80
2022-10-11T06:02:48.078Z,100878.20
2022-10-11T06:05:20.867Z,100885.20
2022-10-11T06:07:54.094Z,100893.00
2022-10-11T06:10:42.570Z,100897.60
2022-10-11T06:13:14.537Z,100903.80
2022-10-11T06:15:47.906Z,100909.20
2022-10-11T06:18:19.769Z,100914.40
2022-10-11T06:20:53.493Z,100915.40
2022-10-11T06:23:25.312Z,100926.60
2022-10-11T06:26:01.414Z,100928.20
2022-10-11T06:28:33.891Z,100926.60
2022-10-11T06:31:07.906Z,100934.60
2022-10-11T06:33:40.104Z,100944.00
2022-10-11T06:36:14.784Z,100947.40
2022-10-11T06:38:48.355Z,100952.80
2022-10-11T06:41:21.938Z,100958.00
2022-10-11T06:43:54.523Z,100961.60
2022-10-11T06:46:36.934Z,100971.80
2022-10-11T06:49:09.296Z,100973.40
2022-10-11T06:51:42.654Z,100980.00
2022-10-11T06:54:14.753Z,100984.20
2022-10-11T06:56:46.884Z,100982.20
2022-10-11T06:59:19.195Z,100987.40
2022-10-11T07:01:51.493Z,100990.20
2022-10-11T07:04:23.462Z,100994.20
2022-10-11T07:06:55.310Z,100995.40
2022-10-11T07:09:27.252Z,101001.20
2022-10-11T07:11:58.857Z,101005.40
2022-10-11T07:14:31.390Z,101010.00
2022-10-11T07:17:03.236Z,101012.80
2022-10-11T07:19:36.124Z,101009.80
2022-10-11T07:22:07.916Z,101016.80
2022-10-11T07:24:39.681Z,101018.20
2022-10-11T07:27:11.435Z,101021.60
2022-10-11T07:29:43.399Z,101021.40
2022-10-11T07:32:16.464Z,101025.20
2022-10-11T07:34:48.759Z,101028.00
2022-10-11T07:37:20.620Z,101030.00
2022-10-11T07:39:53.331Z,101038.20
2022-10-11T07:42:25.177Z,101041.00
2022-10-11T07:44:56.955Z,101043.00
2022-10-11T07:47:28.750Z,101051.60
2022-10-11T07:50:08.787Z,101053.80
2022-10-11T07:52:40.687Z,101050.60
2022-10-11T07:55:12.831Z,101057.00
2022-10-11T07:57:44.545Z,101060.80
2022-10-11T08:00:17.568Z,101054.20
2022-10-11T08:02:49.409Z,101061.40
2022-10-11T08:05:21.338Z,101061.60
2022-10-11T08:07:53.178Z,101064.60
2022-10-11T08:10:25.264Z,101066.00
2022-10-11T08:13:01.951Z,101070.80
2022-10-11T08:15:36.070Z,101065.00
2022-10-11T08:18:08.028Z,101071.60
2022-10-11T08:20:42.301Z,101070.60
2022-10-11T08:23:14.050Z,101070.60
2022-10-11T08:25:48.107Z,101068.80
2022-10-11T08:28:20.948Z,101074.40
2022-10-11T08:30:54.519Z,101075.80
2022-10-11T08:33:27.940Z,101079.00
2022-10-11T08:36:00.290Z,101077.00
2022-10-11T08:38:32.616Z,101081.00
2022-10-11T08:41:04.901Z,101080.60
2022-10-11T08:43:48.133Z,101087.60
2022-10-11T08:46:27.022Z,101088.60
2022-10-11T08:49:00.994Z,101087.60
2022-10-11T08:51:40.951Z,101089.00
2022-10-11T08:54:18.879Z,101082.40
2022-10-11T08:56:52.253Z,101087.20
2022-10-11T08:59:33.887Z,101092.40
2022-10-11T09:02:18.638Z,101090.20
2022-10-11T09:04:54.805Z,101097.00
2022-10-11T09:07:38.105Z,101108.80
2022-10-11T09:10:38.738Z,101109.00
2022-10-11T09:13:31.285Z,101103.80
2022-10-11T09:16:11.534Z,101107.20
2022-10-11T09:18:58.886Z,101106.20
2022-10-11T09:21:37.063Z,101101.80
2022-10-11T09:24:23.103Z,101103.60
2022-10-11T09:26:59.537Z,101109.00
2022-10-11T09:29:48.968Z,101109.20
2022-10-11T09:32:22.003Z,101107.00
2022-10-11T09:35:01.784Z,101109.40
2022-10-11T09:37:38.719Z,101106.40
2022-10-11T09:40:32.073Z,101110.00
2022-10-11T09:43:04.079Z,101104.20
2022-10-11T09:45:36.496Z,101106.80
2022-10-11T09:48:10.417Z,101102.00
2022-10-11T09:50:42.655Z,101099.60
2022-10-11T09:53:14.534Z,101105.00
2022-10-11T09:55:53.400Z,101112.00
2022-10-11T09:58:31.703Z,101106.00
2022-10-11T10:01:08.251Z,101104.80
2022-10-11T10:03:45.172Z,101109.80
2022-10-11T10:06:24.466Z,101106.00
2022-10-11T10:08:56.347Z,101102.20
2022-10-11T10:11:37.005Z,101103.40
2022-10-11T10:14:19.659Z,101103.40
2022-10-11T10:16:59.172Z,101109.60
2022-10-11T10:19:32.670Z,101113.60
2022-10-11T10:22:04.677Z,101113.40
2022-10-11T10:24:41.766Z,101113.20
2022-10-11T10:27:22.182Z,101106.60
2022-10-11T10:30:20.023Z,101115.00
2022-10-11T10:32:56.725Z,101113.60
2022-10-11T10:35:37.539Z,101117.20
2022-10-11T10:38:19.127Z,101121.80
2022-10-11T10:40:58.222Z,101118.20
2022-10-11T10:43:34.679Z,101112.60
2022-10-11T10:46:26.626Z,101116.20
2022-10-11T10:49:41.593Z,101116.60
2022-10-11T10:52:13.446Z,101119.40
2022-10-11T10:54:54.942Z,101121.60
2022-10-11T10:57:34.606Z,101119.60
2022-10-11T11:00:14.559Z,101119.00
2022-10-11T11:02:55.923Z,101118.00
2022-10-11T11:05:40.908Z,101117.40
2022-10-11T11:08:17.246Z,101116.20
2022-10-11T11:10:57.071Z,101118.60
2022-10-11T11:13:38.487Z,101111.20
2022-10-11T11:16:20.860Z,101113.20
2022-10-11T11:18:59.384Z,101115.00
2022-10-11T11:21:42.410Z,101111.60
2022-10-11T11:24:26.274Z,101108.40
2022-10-11T11:27:05.539Z,101105.60
2022-10-11T11:29:55.223Z,101109.80
2022-10-11T11:32:35.813Z,101115.20
2022-10-11T11:35:15.805Z,101115.80
2022-10-11T11:37:55.542Z,101115.00
2022-10-11T11:40:35.933Z,101119.20
2022-10-11T11:43:13.851Z,101113.60
2022-10-11T11:45:52.435Z,101100.60
2022-10-11T11:48:26.399Z,100938.80
2022-10-11T11:51:06.771Z,100935.60
2022-10-11T11:53:52.516Z,100944.00
2022-10-11T11:56:43.345Z,101024.80
2022-10-11T11:59:21.790Z,101119.80
2022-10-11T12:02:01.991Z,100919.20
2022-10-11T12:04:37.672Z,101031.80
2022-10-11T12:07:17.378Z,101124.60
2022-10-11T12:09:54.505Z,100985.20
2022-10-11T12:12:34.049Z,101006.80
2022-10-11T12:15:21.873Z,101025.40
2022-10-11T12:18:17.806Z,101039.40
2022-10-11T12:21:01.667Z,101050.00
2022-10-11T12:23:48.295Z,101063.20
2022-10-11T12:26:41.029Z,101068.20
2022-10-11T12:29:47.090Z,101080.60
2022-10-11T12:32:52.060Z,101085.20
2022-10-11T12:35:57.282Z,101087.80
2022-10-11T12:38:30.448Z,101087.60
2022-10-11T12:41:22.978Z,101093.80
2022-10-11T12:44:23.748Z,101095.80
2022-10-11T12:47:22.871Z,101100.00
2022-10-11T12:50:11.391Z,101096.40
2022-10-11T12:52:55.441Z,101104.60
2022-10-11T12:55:46.224Z,101098.40
2022-10-11T12:58:30.310Z,101093.80
2022-10-11T13:01:23.244Z,101108.00
2022-10-11T13:04:01.895Z,101104.80
2022-10-11T13:06:38.197Z,101122.80
2022-10-11T13:09:21.886Z,101153.20
2022-10-11T13:11:56.318Z,101161.80
2022-10-11T13:14:30.548Z,101157.00
2022-10-11T13:17:09.783Z,101157.60
2022-10-11T13:19:42.757Z,101100.60
2022-10-11T13:22:21.677Z,101101.20
2022-10-11T13:27:47.251Z,101152.00
2022-10-11T13:30:25.365Z,101143.60
2022-10-11T13:32:57.532Z,101119.40
2022-10-11T13:35:33.593Z,101118.80
2022-10-11T13:38:09.309Z,101119.80
2022-10-11T13:40:41.383Z,101121.40
2022-10-11T13:43:16.210Z,101115.40
2022-10-11T13:45:48.261Z,101114.80
2022-10-11T13:48:20.260Z,101118.00
2022-10-11T13:51:09.595Z,101115.00
2022-10-11T13:53:59.714Z,101119.20
2022-10-11T13:56:34.084Z,101120.40
2022-10-11T13:59:06.669Z,101123.80
2022-10-11T14:01:46.076Z,101122.40
2022-10-11T14:04:19.570Z,101122.60
2022-10-11T14:06:58.251Z,101130.60
2022-10-11T14:09:32.836Z,101126.60
2022-10-11T14:12:35.569Z,101128.00
2022-10-11T14:15:24.518Z,101132.00
2022-10-11T14:18:00.350Z,101133.80
2022-10-11T14:20:42.275Z,101135.20
2022-10-11T14:23:14.775Z,101145.60
2022-10-11T14:25:46.833Z,101136.00
2022-10-11T14:28:18.737Z,101134.00
2022-10-11T14:30:50.863Z,101138.80
2022-10-11T14:33:22.880Z,101138.00
2022-10-11T14:35:54.746Z,101137.20
2022-10-11T14:38:36.561Z,101136.60
2022-10-11T14:41:08.766Z,101167.40
2022-10-11T14:43:50.703Z,101174.00
2022-10-11T14:49:20.168Z,101174.00
2022-10-11T14:51:54.072Z,101170.00
2022-10-11T14:54:27.905Z,101173.60
2022-10-11T14:57:02.095Z,101168.80
2022-10-11T14:59:38.179Z,101168.00
2022-10-11T15:02:12.428Z,101172.20
2022-10-11T15:04:44.545Z,101170.60
2022-10-11T15:07:16.481Z,101171.40
2022-10-11T15:09:48.389Z,101166.20
2022-10-11T15:12:20.328Z,101172.80
2022-10-11T15:14:52.087Z,101167.20
2022-10-11T15:17:23.956Z,101163.20
2022-10-11T15:19:55.663Z,101165.00
2022-10-11T15:22:27.487Z,101164.00
2022-10-11T15:25:00.333Z,101168.40
2022-10-11T16:32:28.609Z,101190.20
2022-10-11T16:35:00.289Z,101183.40
2022-10-11T16:37:34.327Z,101182.80
2022-10-11T16:40:06.974Z,101185.80
2022-10-11T16:42:40.369Z,101186.40
2022-10-11T16:45:14.135Z,101183.60
2022-10-11T16:47:46.106Z,101191.00
2022-10-11T16:50:18.382Z,101196.20
2022-10-11T16:52:50.191Z,101191.40
2022-10-11T16:55:21.952Z,101197.80
2022-10-11T16:57:53.715Z,101199.20
2022-10-11T17:00:25.645Z,101198.80
2022-10-11T17:02:57.499Z,101200.80
2022-10-11T17:05:29.296Z,101202.00
2022-10-11T17:08:01.174Z,101206.80
2022-10-11T17:10:39.606Z,101207.60
2022-10-11T17:13:11.430Z,101206.60
2022-10-11T17:15:43.189Z,101210.60
2022-10-11T17:18:14.810Z,101211.20
2022-10-11T17:20:46.959Z,101213.80
2022-10-11T17:23:18.781Z,101214.00
2022-10-11T17:25:50.468Z,101211.20
2022-10-11T17:28:22.302Z,101214.20
2022-10-11T17:30:58.817Z,101217.80
2022-10-11T17:33:31.403Z,101217.80
2022-10-11T17:36:12.945Z,101218.80
2022-10-11T17:38:45.099Z,101219.40
2022-10-11T17:41:16.831Z,101219.40
2022-10-11T17:43:48.940Z,101223.80
2022-10-11T17:46:22.580Z,101217.20
2022-10-11T17:48:55.673Z,101217.00
2022-10-11T17:51:27.781Z,101221.60
2022-10-11T17:53:59.776Z,101217.20
2022-10-11T17:56:37.424Z,101221.00
2022-10-11T17:59:15.703Z,101227.40
2022-10-11T18:01:48.394Z,101222.80
2022-10-11T18:04:22.230Z,101220.00
2022-10-11T18:06:54.422Z,101222.20
2022-10-11T18:09:27.217Z,101223.20
2022-10-11T18:11:59.990Z,101227.80
2022-10-11T18:14:32.059Z,101225.80
2022-10-11T18:17:04.805Z,101224.20
2022-10-11T18:19:37.619Z,101221.80
2022-10-11T18:22:10.641Z,101227.20
2022-10-11T18:24:42.494Z,101226.40
2022-10-11T18:27:14.403Z,101225.60
2022-10-11T18:29:46.529Z,101227.80
2022-10-11T18:32:18.530Z,101228.00
2022-10-11T18:34:50.389Z,101222.40
2022-10-11T18:37:22.351Z,101223.20
2022-10-11T18:39:54.647Z,101224.40
2022-10-11T18:42:26.584Z,101223.80
2022-10-11T18:44:58.453Z,101225.80
2022-10-11T18:47:30.739Z,101223.80
2022-10-11T18:50:02.494Z,101223.80
2022-10-11T18:52:34.265Z,101220.60
2022-10-11T18:55:07.196Z,101223.00
2022-10-11T18:57:39.150Z,101228.00
2022-10-11T19:00:37.747Z,101224.80
2022-10-11T19:03:09.583Z,101224.80
2022-10-11T19:05:43.325Z,101224.40
2022-10-11T19:08:16.129Z,101222.60
2022-10-11T19:10:48.112Z,101223.20
2022-10-11T19:13:19.975Z,101223.80
2022-10-11T19:15:51.829Z,101223.00
2022-10-11T19:18:23.814Z,101229.00
2022-10-11T19:20:56.953Z,101229.80
2022-10-11T19:23:32.368Z,101225.00
2022-10-11T19:26:04.929Z,101228.00
2022-10-11T19:28:37.372Z,101232.20
2022-10-11T19:31:13.004Z,101232.00
2022-10-11T19:33:45.381Z,101236.20
2022-10-11T19:36:19.929Z,101227.20
2022-10-11T19:38:56.601Z,101230.20
2022-10-11T19:41:29.630Z,101232.40
2022-10-11T19:44:04.333Z,101233.80
2022-10-11T19:46:51.070Z,101236.20
2022-10-11T19:49:25.925Z,101233.60
2022-10-11T19:51:59.463Z,101237.20
2022-10-11T19:54:33.184Z,101239.60
2022-10-11T19:57:05.062Z,101234.60
2022-10-11T19:59:36.995Z,101244.80
2022-10-11T20:02:10.748Z,101245.20
2022-10-11T20:04:52.820Z,101244.00
2022-10-11T20:07:25.181Z,101243.40
2022-10-11T20:09:57.049Z,101242.60
2022-10-11T20:12:29.653Z,101244.00
2022-10-11T20:15:01.686Z,101246.00
2022-10-11T20:17:47.445Z,101244.20
2022-10-11T20:20:20.414Z,101243.00
2022-10-11T20:22:53.687Z,101238.80
2022-10-11T20:25:25.840Z,101235.60
2022-10-11T20:27:57.663Z,101239.40
2022-10-11T20:30:29.630Z,101239.20
2022-10-11T20:33:01.698Z,101238.00
2022-10-11T20:35:33.453Z,101244.80
2022-10-11T20:38:05.544Z,101243.00
2022-10-11T20:40:40.468Z,101251.40
2022-10-11T20:43:14.413Z,101249.80
2022-10-11T20:45:47.435Z,101254.40
2022-10-11T20:48:19.165Z,101254.60
2022-10-11T20:50:51.098Z,101251.20
2022-10-11T20:53:23.216Z,101255.00
2022-10-11T20:55:55.509Z,101254.40
2022-10-11T20:58:30.853Z,101253.60
2022-10-11T21:01:08.283Z,101255.00
2022-10-11T21:03:41.452Z,101255.40
2022-10-11T21:06:13.767Z,101253.00
2022-10-11T21:08:45.975Z,101246.80
2022-10-11T21:11:17.893Z,101248.80
2022-10-11T21:13:59.116Z,101250.40
2022-10-11T21:16:31.800Z,101252.20
2022-10-11T21:19:08.904Z,101248.80
2022-10-11T21:21:40.894Z,101251.00
2022-10-11T21:24:12.831Z,101254.40
2022-10-11T21:26:44.637Z,101259.00
2022-10-11T21:29:16.564Z,101256.80
2022-10-11T21:31:48.271Z,101261.00
2022-10-11T21:34:19.951Z,101262.80
2022-10-11T21:36:51.604Z,101262.80
2022-10-11T21:39:23.403Z,101265.20
2022-10-11T21:41:55.308Z,101261.80
2022-10-11T21:44:27.103Z,101261.00
2022-10-11T21:47:07.145Z,101257.20
2022-10-11T21:49:40.378Z,101259.40
2022-10-11T21:52:17.374Z,101260.60
2022-10-11T21:54:49.390Z,101263.00
2022-10-11T21:57:21.481Z,101264.00
2022-10-11T21:59:54.412Z,101259.20
2022-10-11T22:02:26.162Z,101262.20
2022-10-11T22:04:57.981Z,101259.20
2022-10-11T22:07:29.788Z,101263.80
2022-10-11T22:10:01.589Z,101258.60
2022-10-11T22:12:33.573Z,101259.60
2022-10-11T22:15:07.063Z,101254.00
2022-10-11T22:17:38.819Z,101255.80
2022-10-11T22:20:11.775Z,101254.20
2022-10-11T22:22:43.611Z,101253.40
2022-10-11T22:25:15.454Z,101259.00
2022-10-11T22:27:47.435Z,101259.40
2022-10-11T22:30:19.711Z,101254.00
2022-10-11T22:33:01.551Z,101256.20
2022-10-11T22:35:37.341Z,101261.80
2022-10-11T22:38:09.682Z,101260.20
2022-10-11T22:40:43.302Z,101257.40
2022-10-11T22:43:15.078Z,101255.60
2022-10-11T22:45:47.585Z,101252.80
2022-10-11T22:48:19.424Z,101258.20
2022-10-11T22:50:51.345Z,101255.20
2022-10-11T22:53:23.827Z,101255.20
2022-10-11T22:55:55.612Z,101249.00
2022-10-11T22:58:27.414Z,101254.40
2022-10-11T23:00:59.144Z,101255.40
2022-10-11T23:03:30.992Z,101252.80
2022-10-11T23:06:02.812Z,101258.60
2022-10-11T23:08:34.659Z,101254.00
2022-10-11T23:11:07.856Z,101249.80
2022-10-11T23:13:39.672Z,101252.20
2022-10-11T23:16:13.505Z,101254.80
2022-10-11T23:18:45.480Z,101252.80
2022-10-11T23:21:17.260Z,101259.40
2022-10-11T23:23:49.316Z,101251.40
2022-10-11T23:26:21.376Z,101253.60
2022-10-11T23:28:56.100Z,101254.80
2022-10-11T23:31:27.819Z,101250.60
2022-10-11T23:33:59.625Z,101257.20
2022-10-11T23:36:31.391Z,101260.40
2022-10-11T23:39:03.100Z,101260.40
2022-10-11T23:41:34.903Z,101260.00
2022-10-11T23:44:06.732Z,101256.40
2022-10-11T23:46:38.460Z,101265.40
2022-10-11T23:49:10.100Z,101264.00
2022-10-11T23:51:42.052Z,101266.40
2022-10-11T23:54:14.053Z,101269.80
2022-10-11T23:56:45.857Z,101265.80
2022-10-11T23:59:17.656Z,101264.60
